Time;durP1;ratioP1;P1;durP2;ratioP2;P2;SDS_P1;SDS_P2;PMS_P1;PMS_P2;Temp;Humidity;BMP_temperature;BMP_pressure;BME280_temperature;BME280_humidity;BME280_pressure;Samples;Min_cycle;Max_cycle;Signal;HPM_P1;HPM_P2
2021/08/21 00:02:16;;;;;;;;;13.00;13.00;;;;;21.12;51.29;101326.59;6309359;22;45446;-76
2021/08/21 00:04:41;;;;;;;;;16.00;13.75;;;;;21.13;51.21;101331.00;6309446;22;45197;-75
2021/08/21 00:07:07;;;;;;;;;12.25;11.00;;;;;21.09;51.45;101324.03;6281759;22;45179;-75
2021/08/21 00:09:36;;;;;;;;;14.00;12.00;;;;;21.07;51.48;101333.91;6281434;22;45470;-76
2021/08/21 00:12:03;;;;;;;;;13.25;13.00;;;;;21.08;51.41;101335.66;6309989;22;45815;-76
2021/08/21 00:14:28;;;;;;;;;13.50;13.00;;;;;21.01;51.64;101328.81;6282381;22;45946;-76
2021/08/21 00:16:54;;;;;;;;;13.25;12.00;;;;;21.02;51.60;101325.19;6310633;22;45318;-75
2021/08/21 00:19:19;;;;;;;;;15.25;14.75;;;;;20.98;51.80;101317.31;6282648;22;45353;-75
2021/08/21 00:21:45;;;;;;;;;13.50;12.50;;;;;20.97;51.79;101318.25;6310493;22;46651;-75
2021/08/21 00:24:10;;;;;;;;;12.25;12.25;;;;;20.94;51.73;101319.25;6282732;22;45354;-75
2021/08/21 00:26:36;;;;;;;;;12.00;11.75;;;;;20.93;51.81;101317.50;6283096;22;45362;-75
2021/08/21 00:29:01;;;;;;;;;12.00;12.00;;;;;20.93;51.74;101309.47;6310534;22;45194;-76
2021/08/21 00:31:27;;;;;;;;;13.75;13.75;;;;;20.95;51.67;101320.97;6308294;22;46874;-75
2021/08/21 00:33:52;;;;;;;;;15.00;14.25;;;;;20.94;52.22;101316.56;6310635;22;45254;-75
2021/08/21 00:36:18;;;;;;;;;14.50;12.75;;;;;20.95;52.09;101304.91;6283060;22;45185;-78
2021/08/21 00:38:43;;;;;;;;;11.00;11.00;;;;;20.95;52.13;101301.38;6310894;22;45200;-76
2021/08/21 00:41:09;;;;;;;;;14.25;13.00;;;;;20.93;52.07;101301.44;6282654;22;46185;-76
2021/08/21 00:43:38;;;;;;;;;12.75;12.75;;;;;20.95;52.29;101302.25;6309815;22;45239;-75
2021/08/21 00:46:04;;;;;;;;;12.75;12.75;;;;;20.92;52.39;101302.38;6282219;22;45283;-75
2021/08/21 00:48:29;;;;;;;;;14.25;11.75;;;;;20.92;52.29;101305.91;6282584;22;45779;-75
2021/08/21 00:50:58;;;;;;;;;14.00;13.00;;;;;20.85;52.62;101291.03;6282597;22;47450;-75
2021/08/21 00:53:24;;;;;;;;;10.50;10.00;;;;;20.85;52.88;101296.38;6308572;22;45205;-75
2021/08/21 00:55:50;;;;;;;;;19.50;12.75;;;;;20.84;52.53;101299.09;6310557;22;45409;-76
2021/08/21 00:58:18;;;;;;;;;14.00;12.50;;;;;20.84;53.14;101302.66;6310685;22;45228;-75
2021/08/21 01:00:44;;;;;;;;;13.25;12.50;;;;;20.82;52.48;101301.84;6310196;22;46402;-76
2021/08/21 01:03:09;;;;;;;;;15.00;12.50;;;;;20.75;53.08;101292.31;6310399;22;45303;-75
2021/08/21 01:05:35;;;;;;;;;14.50;12.50;;;;;20.75;52.86;101297.66;6310861;22;45465;-75
2021/08/21 01:08:00;;;;;;;;;13.75;12.50;;;;;20.74;52.95;101297.69;6282302;22;45709;-76
2021/08/21 01:10:26;;;;;;;;;13.50;12.00;;;;;20.72;52.97;101292.41;6310712;22;45343;-75
2021/08/21 01:12:53;;;;;;;;;13.00;13.00;;;;;20.68;52.98;101298.78;6282533;22;45363;-76
2021/08/21 01:15:20;;;;;;;;;12.50;11.25;;;;;20.71;52.94;101306.72;6310508;22;45215;-75
2021/08/21 01:17:47;;;;;;;;;13.50;12.50;;;;;20.66;52.98;101296.19;6310140;22;45329;-75
2021/08/21 01:20:13;;;;;;;;;13.50;12.25;;;;;20.68;53.00;101299.66;6282233;22;48231;-75
2021/08/21 01:22:38;;;;;;;;;11.75;11.75;;;;;20.69;53.34;101298.75;6308139;22;45357;-75
2021/08/21 01:25:15;;;;;;;;;13.50;12.50;;;;;20.74;53.47;101303.91;6310634;22;45361;-75
2021/08/21 01:27:41;;;;;;;;;11.75;11.25;;;;;20.68;53.71;101283.59;6282242;22;45343;-75
2021/08/21 01:30:07;;;;;;;;;12.25;10.75;;;;;20.63;53.85;101287.38;6309921;22;45352;-75
2021/08/21 01:32:33;;;;;;;;;11.75;10.25;;;;;20.61;53.72;101273.19;6282051;22;45169;-75
2021/08/21 01:34:59;;;;;;;;;12.50;12.50;;;;;20.63;53.68;101290.06;6282485;22;45402;-75
2021/08/21 01:37:28;;;;;;;;;12.75;11.25;;;;;20.62;53.72;101285.66;6282384;22;45198;-75
2021/08/21 01:39:55;;;;;;;;;11.25;11.00;;;;;20.61;53.76;101286.56;6310019;22;45457;-75
2021/08/21 01:42:22;;;;;;;;;9.50;9.25;;;;;20.63;53.73;101290.94;6310380;22;45309;-75
2021/08/21 01:44:48;;;;;;;;;10.25;9.00;;;;;20.62;53.66;101289.19;6281707;22;45125;-76
2021/08/21 01:47:15;;;;;;;;;8.75;8.75;;;;;20.58;53.76;101284.91;6282171;22;45263;-75
2021/08/21 01:49:50;;;;;;;;;11.00;10.00;;;;;20.55;53.71;101281.44;6310103;22;45284;-75
2021/08/21 01:52:16;;;;;;;;;11.75;11.75;;;;;20.56;53.81;101288.56;6282314;22;45889;-75
2021/08/21 01:54:41;;;;;;;;;9.25;9.25;;;;;20.51;53.70;101280.66;6310627;22;45153;-75
2021/08/21 01:57:07;;;;;;;;;12.00;11.50;;;;;20.47;54.01;101273.66;6282571;22;45346;-76
2021/08/21 01:59:40;;;;;;;;;8.50;8.50;;;;;20.48;54.00;101287.00;6310093;22;46358;-75
2021/08/21 02:02:07;;;;;;;;;9.75;9.00;;;;;20.48;54.10;101278.97;6308380;22;45232;-76
2021/08/21 02:04:33;;;;;;;;;8.75;7.75;;;;;20.43;54.14;101277.41;6310358;22;45373;-75
2021/08/21 02:06:59;;;;;;;;;10.00;9.75;;;;;20.44;53.96;101289.84;6310372;22;45412;-75
2021/08/21 02:09:26;;;;;;;;;8.75;8.75;;;;;20.36;53.98;101275.88;6310343;22;45313;-76
2021/08/21 02:11:53;;;;;;;;;11.25;10.25;;;;;20.32;54.32;101263.56;6282399;22;45200;-76
2021/08/21 02:14:20;;;;;;;;;10.25;10.25;;;;;20.32;54.39;101269.75;6309965;22;45275;-76
2021/08/21 02:16:49;;;;;;;;;9.00;8.25;;;;;20.30;54.27;101271.63;6310417;22;45118;-75
2021/08/21 02:19:14;;;;;;;;;9.00;8.50;;;;;20.30;54.27;101271.63;6281864;22;47356;-76
2021/08/21 02:21:40;;;;;;;;;11.25;9.25;;;;;20.24;54.30;101269.16;6281962;22;45823;-75
2021/08/21 02:24:06;;;;;;;;;9.75;9.00;;;;;20.20;54.48;101264.84;6282103;22;45373;-76
2021/08/21 02:26:37;;;;;;;;;9.00;9.00;;;;;20.18;54.82;101266.69;6282388;22;45200;-75
2021/08/21 02:29:02;;;;;;;;;10.00;9.25;;;;;20.14;54.89;101265.94;6281255;22;46222;-76
2021/08/21 02:31:28;;;;;;;;;10.00;9.00;;;;;20.12;54.78;101272.25;6309960;22;45286;-75
2021/08/21 02:33:53;;;;;;;;;7.75;7.75;;;;;20.11;54.96;101265.19;6309954;22;45346;-76
2021/08/21 02:36:19;;;;;;;;;8.50;8.50;;;;;20.09;54.81;101267.88;6310475;22;45286;-76
2021/08/21 02:38:48;;;;;;;;;7.50;7.50;;;;;20.13;55.07;101279.34;6282231;22;45983;-75
2021/08/21 02:41:13;;;;;;;;;8.50;8.00;;;;;20.07;54.76;101260.84;6281990;22;45166;-75
2021/08/21 02:43:39;;;;;;;;;6.75;6.75;;;;;20.06;54.94;101257.31;6281263;22;45138;-75
2021/08/21 02:46:04;;;;;;;;;8.75;7.25;;;;;20.13;55.05;101268.66;6281900;22;45449;-75
2021/08/21 02:48:30;;;;;;;;;7.50;6.75;;;;;20.08;55.35;101255.47;6281817;22;48469;-75
2021/08/21 02:50:56;;;;;;;;;10.50;9.75;;;;;20.12;54.96;101261.56;6282305;22;45473;-75
2021/08/21 02:53:21;;;;;;;;;7.75;7.75;;;;;20.12;55.32;101270.44;6282149;22;45221;-75
2021/08/21 02:55:46;;;;;;;;;10.25;8.75;;;;;20.06;55.33;101257.31;6310253;22;45384;-75
2021/08/21 02:58:12;;;;;;;;;6.00;6.00;;;;;20.10;54.96;101260.75;6309790;22;46378;-75
2021/08/21 03:00:39;;;;;;;;;7.25;6.50;;;;;20.08;55.41;101257.28;6281531;22;45363;-76
2021/08/21 03:03:04;;;;;;;;;7.50;7.00;;;;;20.12;54.98;101256.22;6282354;22;45370;-76
2021/08/21 03:05:30;;;;;;;;;7.75;6.75;;;;;20.10;55.41;101258.97;6310079;22;45499;-75
2021/08/21 03:07:56;;;;;;;;;7.25;7.00;;;;;20.05;55.19;101256.44;6309790;22;45385;-75
2021/08/21 03:10:22;;;;;;;;;7.75;7.75;;;;;20.11;55.28;101266.03;6310102;22;45186;-76
2021/08/21 03:12:48;;;;;;;;;8.00;7.50;;;;;20.07;55.68;101256.38;6310260;22;45167;-75
2021/08/21 03:15:14;;;;;;;;;7.25;7.25;;;;;20.08;55.32;101252.78;6281695;22;45143;-75
2021/08/21 03:17:39;;;;;;;;;8.25;8.25;;;;;20.05;55.50;101253.78;6307592;22;47064;-76
2021/08/21 03:20:05;;;;;;;;;7.00;7.00;;;;;20.03;55.45;101254.75;6282213;22;45153;-75
2021/08/21 03:22:31;;;;;;;;;7.75;7.00;;;;;20.06;55.84;101249.28;6310039;22;45204;-75
2021/08/21 03:24:56;;;;;;;;;9.25;8.00;;;;;19.97;55.63;101233.59;6310067;22;45147;-75
2021/08/21 03:27:22;;;;;;;;;6.00;6.00;;;;;19.94;55.59;101239.91;6281831;22;46986;-75
2021/08/21 03:29:47;;;;;;;;;7.50;6.25;;;;;19.90;55.53;101240.94;6309786;22;45259;-75
2021/08/21 03:32:16;;;;;;;;;10.25;8.00;;;;;19.93;55.83;101245.28;6281812;22;45255;-75
2021/08/21 03:34:42;;;;;;;;;6.75;6.75;;;;;19.88;55.92;101242.78;6309573;22;45413;-75
2021/08/21 03:37:07;;;;;;;;;9.00;7.50;;;;;19.84;55.88;101235.81;6309431;22;45707;-76
2021/08/21 03:39:33;;;;;;;;;7.00;6.50;;;;;19.86;55.91;101238.41;6281951;22;45122;-76
2021/08/21 03:41:58;;;;;;;;;5.00;5.00;;;;;19.79;56.29;101225.25;6281642;22;45273;-75
2021/08/21 03:44:24;;;;;;;;;6.00;5.00;;;;;19.76;55.96;101227.19;6281222;22;45526;-75
2021/08/21 03:46:49;;;;;;;;;7.00;6.00;;;;;19.75;55.63;101236.09;6309258;22;45216;-75
2021/08/21 03:49:16;;;;;;;;;7.00;7.00;;;;;19.74;55.95;101229.88;6309642;22;45191;-75
2021/08/21 03:51:41;;;;;;;;;7.25;7.00;;;;;19.66;55.77;101233.72;6282021;22;45173;-76
2021/08/21 03:54:07;;;;;;;;;6.25;6.25;;;;;19.61;55.80;101224.06;6307705;22;45529;-75
2021/08/21 03:56:32;;;;;;;;;7.00;7.00;;;;;19.61;55.96;101232.06;6309918;22;46448;-76
2021/08/21 03:58:58;;;;;;;;;6.75;5.50;;;;;19.63;56.18;101228.50;6281821;22;45802;-75
2021/08/21 04:01:23;;;;;;;;;7.50;7.00;;;;;19.55;56.17;101224.25;6309672;22;45248;-75
2021/08/21 04:03:48;;;;;;;;;7.00;6.75;;;;;19.49;56.48;101211.13;6309739;22;45472;-75
2021/08/21 04:06:14;;;;;;;;;6.00;6.00;;;;;19.48;56.76;101213.84;6310178;22;46017;-75
2021/08/21 04:08:39;;;;;;;;;8.00;7.00;;;;;19.50;57.04;101220.88;6281586;22;45353;-76
2021/08/21 04:11:05;;;;;;;;;5.50;5.50;;;;;19.48;56.81;101211.16;6309566;22;45392;-75
2021/08/21 04:13:30;;;;;;;;;6.00;5.25;;;;;19.46;57.03;101207.66;6309711;22;45440;-75
2021/08/21 04:15:56;;;;;;;;;6.00;6.00;;;;;19.41;56.98;101214.97;6309104;22;46185;-75
2021/08/21 04:18:21;;;;;;;;;5.50;5.25;;;;;19.39;57.11;101215.03;6282296;22;45654;-76
2021/08/21 04:20:46;;;;;;;;;8.50;6.50;;;;;19.31;57.05;101209.06;6310473;22;45449;-76
2021/08/21 04:23:12;;;;;;;;;6.75;5.00;;;;;19.32;56.92;101210.78;6309888;22;45509;-76
2021/08/21 04:25:37;;;;;;;;;4.50;4.50;;;;;19.26;57.31;101203.00;6309614;22;46466;-76
2021/08/21 04:28:03;;;;;;;;;7.00;5.75;;;;;19.26;57.13;101200.31;6309643;22;45201;-75
2021/08/21 04:30:29;;;;;;;;;6.00;5.25;;;;;19.25;56.99;101201.25;6309547;22;45228;-76
2021/08/21 04:32:54;;;;;;;;;6.25;5.50;;;;;19.23;57.07;101198.63;6309531;22;45105;-76
2021/08/21 04:35:20;;;;;;;;;5.00;5.00;;;;;19.27;57.53;101200.28;6281116;22;47264;-76
2021/08/21 04:37:45;;;;;;;;;7.00;6.00;;;;;19.21;57.59;101197.78;6281409;22;45341;-75
2021/08/21 04:40:11;;;;;;;;;5.00;5.00;;;;;19.23;57.79;101208.44;6309714;22;45225;-75
2021/08/21 04:42:37;;;;;;;;;8.00;6.75;;;;;19.23;57.25;101214.63;6309180;22;45484;-75
2021/08/21 04:45:04;;;;;;;;;5.50;4.75;;;;;19.24;57.70;101219.03;6280261;22;47180;-75
2021/08/21 04:47:29;;;;;;;;;5.25;5.25;;;;;19.20;57.69;101208.53;6309080;22;45241;-75
2021/08/21 04:49:56;;;;;;;;;7.50;6.25;;;;;19.21;57.87;101219.16;6309113;22;45355;-75
2021/08/21 04:52:22;;;;;;;;;7.00;5.75;;;;;19.19;57.53;101207.63;6309194;22;45259;-75
2021/08/21 04:54:49;;;;;;;;;7.00;7.00;;;;;19.25;57.43;101230.63;6309268;22;45235;-75
2021/08/21 04:57:14;;;;;;;;;8.75;7.00;;;;;19.21;57.50;101212.94;6309479;22;45171;-75
2021/08/21 04:59:40;;;;;;;;;5.50;5.50;;;;;19.21;57.54;101215.63;6282378;22;45182;-75
2021/08/21 05:02:05;;;;;;;;;6.00;4.75;;;;;19.16;57.60;101207.75;6310417;22;45142;-75
2021/08/21 05:04:31;;;;;;;;;5.75;5.75;;;;;19.23;57.66;101217.31;6310530;22;45196;-76
2021/08/21 05:06:56;;;;;;;;;7.25;6.50;;;;;19.20;57.44;101213.88;6310508;22;45102;-75
2021/08/21 05:09:21;;;;;;;;;6.50;6.50;;;;;19.26;58.20;101216.34;6283093;22;45350;-75
2021/08/21 05:11:47;;;;;;;;;7.25;7.00;;;;;19.26;57.79;101217.22;6310651;22;45361;-75
2021/08/21 05:14:12;;;;;;;;;6.00;6.00;;;;;19.33;57.61;101224.09;6282130;22;48059;-75
2021/08/21 05:16:42;;;;;;;;;6.00;5.75;;;;;19.37;57.55;101224.88;6282488;22;45540;-75
2021/08/21 05:19:12;;;;;;;;;7.25;7.25;;;;;19.36;57.53;101217.78;6310502;22;45228;-75
2021/08/21 05:21:47;;;;;;;;;6.00;6.00;;;;;19.36;57.81;101215.13;6310601;22;45267;-75
2021/08/21 05:24:12;;;;;;;;;9.75;8.75;;;;;19.41;57.65;101217.66;6308263;22;48592;-76
2021/08/21 05:26:39;;;;;;;;;7.00;6.50;;;;;19.45;57.96;101227.28;6310783;22;45417;-75
2021/08/21 05:29:05;;;;;;;;;6.75;6.00;;;;;19.44;57.85;101225.56;6282169;22;45281;-75
2021/08/21 05:31:30;;;;;;;;;8.00;6.75;;;;;19.40;57.59;101216.75;6310079;22;45262;-76
2021/08/21 05:33:56;;;;;;;;;8.75;8.75;;;;;19.49;57.54;101228.94;6310501;22;46336;-75
2021/08/21 05:36:22;;;;;;;;;7.25;7.00;;;;;19.49;57.89;101228.94;6310758;22;45168;-75
2021/08/21 05:38:47;;;;;;;;;6.75;6.75;;;;;19.54;57.70;101233.22;6308760;22;45096;-75
2021/08/21 05:41:12;;;;;;;;;6.00;6.00;;;;;19.49;57.42;101215.59;6310574;22;45201;-75
2021/08/21 05:43:38;;;;;;;;;6.00;6.00;;;;;19.53;57.94;101228.78;6309523;22;45163;-75
2021/08/21 05:46:03;;;;;;;;;9.75;7.75;;;;;19.58;58.09;101226.81;6310094;22;45547;-75
2021/08/21 05:48:28;;;;;;;;;5.25;5.25;;;;;19.62;57.70;101227.63;6310721;22;45784;-75
2021/08/21 05:50:54;;;;;;;;;6.75;5.75;;;;;19.69;57.73;101236.31;6310661;22;45156;-76
2021/08/21 05:53:19;;;;;;;;;6.25;6.25;;;;;19.69;57.60;101230.97;6310280;22;46386;-76
2021/08/21 05:55:45;;;;;;;;;8.50;7.00;;;;;19.75;57.28;101226.31;6310589;22;45158;-76
2021/08/21 05:58:10;;;;;;;;;7.00;7.00;;;;;19.85;57.56;101239.34;6282441;22;45204;-75
2021/08/21 06:00:35;;;;;;;;;9.00;7.75;;;;;19.85;57.56;101225.97;6310030;22;45456;-75
2021/08/21 06:03:01;;;;;;;;;6.00;6.00;;;;;19.92;57.50;101239.09;6310486;22;46108;-75
2021/08/21 06:05:26;;;;;;;;;8.50;7.50;;;;;19.91;57.34;101231.97;6310552;22;45112;-76
2021/08/21 06:07:51;;;;;;;;;6.50;6.50;;;;;19.91;57.42;101220.41;6282695;22;45462;-76
2021/08/21 06:10:17;;;;;;;;;7.25;7.25;;;;;19.97;56.97;101231.78;6307668;22;45354;-76
2021/08/21 06:12:42;;;;;;;;;7.50;6.75;;;;;19.99;57.01;101237.06;6282050;22;45949;-75
2021/08/21 06:15:08;;;;;;;;;6.25;6.00;;;;;20.00;57.40;101233.47;6310020;22;45307;-75
2021/08/21 06:17:34;;;;;;;;;7.75;6.25;;;;;20.04;57.49;101232.44;6310227;22;45180;-75
2021/08/21 06:19:59;;;;;;;;;6.00;6.00;;;;;20.08;57.11;101238.56;6282049;22;45350;-75
2021/08/21 06:22:25;;;;;;;;;6.50;6.50;;;;;20.07;56.97;101237.66;6281982;22;45952;-75
2021/08/21 06:24:51;;;;;;;;;7.75;7.75;;;;;20.11;57.29;101230.41;6282050;22;45745;-76
2021/08/21 06:27:17;;;;;;;;;7.00;6.00;;;;;20.14;56.98;101230.31;6310056;22;45168;-76
2021/08/21 06:29:42;;;;;;;;;7.75;7.75;;;;;20.18;56.92;101230.16;6310025;22;45253;-76
2021/08/21 06:32:08;;;;;;;;;6.75;6.00;;;;;20.22;57.36;101228.22;6310123;22;46460;-76
2021/08/21 06:34:33;;;;;;;;;8.75;7.75;;;;;20.24;57.42;101224.56;6310577;22;45239;-76
2021/08/21 06:37:00;;;;;;;;;6.75;6.00;;;;;20.27;56.82;101220.91;6310304;22;45387;-76
2021/08/21 06:39:26;;;;;;;;;7.50;6.25;;;;;20.30;57.23;101211.91;6282201;22;45396;-76
2021/08/21 06:41:51;;;;;;;;;9.50;7.75;;;;;20.39;57.19;101225.81;6309649;22;45459;-76
2021/08/21 06:44:17;;;;;;;;;10.00;9.00;;;;;20.39;57.15;101222.25;6276005;22;45741;-76
2021/08/21 06:46:43;;;;;;;;;6.25;6.00;;;;;20.51;56.80;101231.66;6278635;22;45298;-76
2021/08/21 06:49:08;;;;;;;;;9.00;8.75;;;;;20.53;57.18;101216.38;6278787;22;45394;-77
2021/08/21 06:51:33;;;;;;;;;7.00;7.00;;;;;20.59;56.95;101208.19;6276188;22;46036;-76
2021/08/21 06:53:59;;;;;;;;;6.75;6.25;;;;;20.66;56.68;101207.91;6278722;22;45274;-77
2021/08/21 06:56:24;;;;;;;;;7.75;7.75;;;;;20.72;56.80;101205.94;6276789;22;45209;-76
2021/08/21 06:58:50;;;;;;;;;9.25;8.25;;;;;20.82;56.98;101210.88;6276389;22;45407;-76
2021/08/21 07:01:15;;;;;;;;;8.75;8.75;;;;;20.86;56.50;101204.44;6278159;22;45279;-76
2021/08/21 07:03:41;;;;;;;;;9.00;9.00;;;;;20.92;56.17;101201.50;6278523;22;45299;-76
2021/08/21 07:06:06;;;;;;;;;10.25;9.50;;;;;21.01;56.36;101205.66;6276292;22;45394;-76
2021/08/21 07:08:32;;;;;;;;;8.00;7.25;;;;;21.12;56.22;101208.75;6278398;22;45349;-76
2021/08/21 07:10:57;;;;;;;;;11.00;11.00;;;;;21.15;55.82;101210.44;6278686;22;46446;-75
2021/08/21 07:13:24;;;;;;;;;12.50;9.00;;;;;21.20;55.85;101208.47;6278565;22;45112;-76
2021/08/21 07:15:50;;;;;;;;;9.75;8.75;;;;;21.27;55.62;101220.66;6276298;22;45299;-76
2021/08/21 07:18:16;;;;;;;;;8.00;7.00;;;;;21.26;55.38;101205.53;6278633;22;45380;-76
2021/08/21 07:20:41;;;;;;;;;9.50;8.25;;;;;21.38;55.57;101211.34;6275282;22;46958;-76
2021/08/21 07:23:06;;;;;;;;;8.75;7.50;;;;;21.47;55.27;101217.19;6278543;22;45184;-76
2021/08/21 07:25:32;;;;;;;;;8.00;7.50;;;;;21.54;55.23;101212.44;6276222;22;45313;-76
2021/08/21 07:27:58;;;;;;;;;7.50;7.50;;;;;21.65;55.00;101218.25;6278444;22;45467;-76
2021/08/21 07:30:24;;;;;;;;;8.50;7.50;;;;;21.72;54.47;101208.13;6278058;22;45342;-76
2021/08/21 07:32:49;;;;;;;;;8.75;7.00;;;;;21.79;54.06;101218.53;6278133;22;45298;-76
2021/08/21 07:35:14;;;;;;;;;8.00;8.00;;;;;21.92;53.96;101232.28;6278916;22;45279;-76
2021/08/21 07:37:40;;;;;;;;;8.75;8.50;;;;;21.99;53.64;101219.44;6276282;22;45490;-76
2021/08/21 07:40:06;;;;;;;;;7.50;7.50;;;;;22.07;53.67;101219.97;6277889;22;45258;-77
2021/08/21 07:42:32;;;;;;;;;8.50;7.25;;;;;22.15;53.53;101231.25;6277778;22;45124;-76
2021/08/21 07:44:57;;;;;;;;;8.50;8.50;;;;;22.21;53.16;101227.44;6280369;22;45390;-76
2021/08/21 07:47:22;;;;;;;;;9.00;8.67;;;;;22.30;53.22;101219.00;6309062;22;45180;-75
2021/08/21 07:49:48;;;;;;;;;6.50;6.50;;;;;22.42;53.27;101217.56;6308886;22;45141;-75
2021/08/21 07:52:13;;;;;;;;;7.75;6.50;;;;;22.59;52.75;101231.09;6281212;22;45182;-75
2021/08/21 07:54:38;;;;;;;;;8.25;7.25;;;;;22.71;52.37;101226.09;6281273;22;45105;-76
2021/08/21 07:57:04;;;;;;;;;9.50;8.00;;;;;22.74;52.56;101213.41;6309337;22;45188;-75
2021/08/21 07:59:29;;;;;;;;;9.33;7.33;;;;;22.84;51.73;101227.25;6308616;22;45711;-76
2021/08/21 08:01:55;;;;;;;;;5.67;5.00;;;;;22.90;52.45;101219.78;6308937;22;45164;-76
2021/08/21 08:04:20;;;;;;;;;8.67;7.00;;;;;22.98;52.31;101223.94;6309234;22;45073;-75
2021/08/21 08:06:45;;;;;;;;;7.00;7.00;;;;;23.07;51.88;101223.53;6281180;22;45448;-76
2021/08/21 08:09:11;;;;;;;;;5.00;5.00;;;;;23.19;52.13;101227.44;6280857;22;47254;-76
2021/08/21 08:11:36;;;;;;;;;6.50;6.50;;;;;23.31;51.67;101221.47;6307085;22;45220;-76
2021/08/21 08:14:02;;;;;;;;;8.25;7.25;;;;;23.37;51.29;101225.66;6281176;22;45174;-75
2021/08/21 08:16:27;;;;;;;;;6.75;6.50;;;;;23.39;51.01;101216.56;6309059;22;45518;-76
2021/08/21 08:18:53;;;;;;;;;9.75;9.00;;;;;23.46;51.48;101211.75;6280865;22;47147;-76
2021/08/21 08:21:19;;;;;;;;;6.75;6.75;;;;;23.59;50.43;101207.50;6308841;22;45275;-75
2021/08/21 08:23:46;;;;;;;;;8.50;7.00;;;;;23.64;50.67;101205.44;6309235;22;45279;-76
2021/08/21 08:26:12;;;;;;;;;8.25;8.25;;;;;23.73;50.69;101213.06;6281228;22;45552;-76
2021/08/21 08:28:37;;;;;;;;;9.33;8.00;;;;;23.91;50.70;101215.78;6308441;22;45216;-76
2021/08/21 08:31:03;;;;;;;;;6.33;6.33;;;;;23.97;50.19;101210.06;6308383;22;45252;-76
2021/08/21 08:33:28;;;;;;;;;9.33;7.33;;;;;24.04;49.99;101205.25;6309587;22;45189;-76
2021/08/21 08:35:55;;;;;;;;;9.00;9.00;;;;;24.12;49.72;101205.72;6281989;22;45407;-75
2021/08/21 08:38:21;;;;;;;;;9.00;7.25;;;;;24.19;49.32;101215.16;6309566;22;45540;-76
2021/08/21 08:40:47;;;;;;;;;9.25;8.75;;;;;24.26;49.19;101211.22;6309386;22;45397;-77
2021/08/21 08:43:13;;;;;;;;;8.25;8.25;;;;;24.33;49.06;101214.47;6282254;22;45803;-76
2021/08/21 08:45:40;;;;;;;;;11.00;9.75;;;;;24.40;49.25;101218.53;6308655;22;45356;-75
2021/08/21 08:48:06;;;;;;;;;8.25;8.25;;;;;24.39;48.94;101209.59;6281417;22;48229;-75
2021/08/21 08:50:31;;;;;;;;;9.50;9.50;;;;;24.41;48.53;101217.59;6307648;22;45374;-75
2021/08/21 08:52:57;;;;;;;;;7.50;6.50;;;;;24.42;48.12;101219.34;6310226;22;45158;-75
2021/08/21 08:55:23;;;;;;;;;7.50;6.75;;;;;24.47;48.31;101224.50;6282064;22;45141;-75
2021/08/21 08:57:49;;;;;;;;;7.75;7.75;;;;;24.52;48.11;101219.75;6309638;22;45577;-75
2021/08/21 09:00:21;;;;;;;;;9.75;7.00;;;;;24.70;48.38;101221.44;6309888;22;45191;-75
2021/08/21 09:02:51;;;;;;;;;7.00;7.00;;;;;24.78;48.36;101220.97;6309968;22;45322;-76
2021/08/21 09:05:19;;;;;;;;;8.00;7.00;;;;;24.95;48.28;101228.13;6309556;22;45324;-75
2021/08/21 09:07:45;;;;;;;;;7.00;6.00;;;;;25.13;47.64;101229.78;6309256;22;45584;-76
2021/08/21 09:10:22;;;;;;;;;9.00;8.00;;;;;25.26;47.84;101217.38;6281454;22;45363;-76
2021/08/21 09:13:01;;;;;;;;;8.00;8.00;;;;;25.40;46.84;101229.19;6309755;22;45220;-76
2021/08/21 09:15:29;;;;;;;;;10.00;7.00;;;;;25.52;46.66;101229.31;6310379;22;45291;-75
2021/08/21 09:18:10;;;;;;;;;7.33;7.00;;;;;25.66;46.93;101231.25;6281956;22;47303;-75
2021/08/21 09:20:50;;;;;;;;;11.00;8.67;;;;;25.81;46.66;101226.75;6309209;22;45082;-75
2021/08/21 09:23:39;;;;;;;;;6.67;5.67;;;;;25.95;46.22;101234.94;6310056;22;45385;-75
2021/08/21 09:26:08;;;;;;;;;6.33;6.33;;;;;26.09;45.98;101230.50;6309297;22;45102;-75
2021/08/21 09:28:36;;;;;;;;;7.33;7.33;;;;;26.23;46.10;101235.06;6280960;22;47079;-75
2021/08/21 09:31:07;;;;;;;;;6.33;6.33;;;;;26.26;45.97;101222.25;6280766;22;45384;-77
2021/08/21 09:33:36;;;;;;;;;8.00;8.00;;;;;26.34;45.54;101217.22;6309154;22;45345;-76
2021/08/21 09:36:03;;;;;;;;;7.50;6.50;;;;;26.36;45.59;101222.56;6308980;22;45509;-76
2021/08/21 09:38:30;;;;;;;;;6.33;6.00;;;;;26.44;45.62;101216.63;6308890;22;45432;-76
2021/08/21 09:41:04;;;;;;;;;8.33;7.33;;;;;26.46;45.52;101220.97;6308719;22;45161;-76
2021/08/21 09:43:32;;;;;;;;;6.67;6.67;;;;;26.47;45.38;101214.63;6308577;22;45251;-77
2021/08/21 09:46:14;;;;;;;;;7.00;7.00;;;;;26.54;45.33;101207.94;6280836;22;45286;-76
2021/08/21 09:49:04;;;;;;;;;9.00;8.00;;;;;26.72;45.14;101215.81;6280797;22;46942;-75
2021/08/21 09:51:42;;;;;;;;;7.33;6.00;;;;;26.87;45.56;101214.81;6309399;22;45215;-76
2021/08/21 09:54:11;;;;;;;;;8.33;7.67;;;;;27.05;44.93;101210.03;6281618;22;45140;-76
2021/08/21 09:56:42;;;;;;;;;9.00;8.00;;;;;27.17;44.58;101203.00;6281020;22;45243;-76
2021/08/21 09:59:09;;;;;;;;;6.00;5.00;;;;;27.28;44.59;101203.16;6308351;22;47899;-76
2021/08/21 10:01:35;;;;;;;;;6.50;6.50;;;;;27.41;44.09;101203.22;6309086;22;45110;-76
2021/08/21 10:04:03;;;;;;;;;9.00;8.00;;;;;27.43;44.13;101207.53;6309871;22;45171;-77
2021/08/21 10:06:29;;;;;;;;;9.00;9.00;;;;;27.46;43.50;101201.06;6309522;22;45274;-77
2021/08/21 10:09:08;;;;;;;;;8.25;8.25;;;;;27.53;43.83;101196.09;6309380;22;45372;-76
2021/08/21 10:11:35;;;;;;;;;7.67;7.67;;;;;27.60;43.79;101213.66;6309620;22;45165;-75
2021/08/21 10:14:01;;;;;;;;;5.00;4.33;;;;;27.60;43.57;101210.94;6307535;22;45210;-76
2021/08/21 10:16:27;;;;;;;;;7.33;7.00;;;;;27.56;43.78;101204.88;6281298;22;45175;-76
2021/08/21 10:18:54;;;;;;;;;6.67;6.00;;;;;27.68;43.33;101209.44;6281112;22;47006;-75
2021/08/21 10:21:20;;;;;;;;;7.67;7.67;;;;;27.81;43.65;101198.69;6281409;22;45901;-76
2021/08/21 10:23:48;;;;;;;;;5.33;5.00;;;;;27.95;43.22;101197.72;6309338;22;45357;-76
2021/08/21 10:26:24;;;;;;;;;9.00;9.00;;;;;28.00;43.21;101198.28;6309383;22;45222;-77
2021/08/21 10:28:51;;;;;;;;;8.00;8.00;;;;;28.05;42.07;101198.81;6308593;22;45375;-76
2021/08/21 10:31:33;;;;;;;;;5.33;5.33;;;;;28.12;42.60;101193.81;6309324;22;45161;-76
2021/08/21 10:33:59;;;;;;;;;8.33;8.33;;;;;28.28;42.65;101188.19;6280965;22;45199;-76
2021/08/21 10:36:48;;;;;;;;;7.00;6.50;;;;;28.45;42.10;101173.50;6281233;22;45215;-76
2021/08/21 10:39:13;;;;;;;;;6.67;5.67;;;;;28.64;41.75;101190.16;6309218;22;46508;-76
2021/08/21 10:41:39;;;;;;;;;7.00;6.00;;;;;28.72;41.77;101184.16;6309468;22;45286;-76
2021/08/21 10:44:05;;;;;;;;;4.67;4.00;;;;;28.88;41.11;101192.03;6306832;22;45303;-76
2021/08/21 10:46:30;;;;;;;;;6.00;5.00;;;;;28.94;40.52;101197.84;6309305;22;45216;-76
2021/08/21 10:48:57;;;;;;;;;4.67;4.67;;;;;28.94;40.97;101194.28;6307345;22;48214;-76
2021/08/21 10:51:37;;;;;;;;;8.33;7.00;;;;;28.95;41.04;101196.91;6281133;22;45235;-76
2021/08/21 10:54:24;;;;;;;;;7.00;7.00;;;;;29.05;40.87;101204.38;6309203;22;45389;-77
2021/08/21 10:56:50;;;;;;;;;7.33;6.33;;;;;29.08;40.03;101196.00;6308578;22;45299;-77
2021/08/21 10:59:40;;;;;;;;;7.00;5.25;;;;;29.18;40.46;101186.22;6308964;22;47986;-77
2021/08/21 11:02:31;;;;;;;;;7.00;7.00;;;;;29.29;39.76;101182.69;6309234;22;45140;-77
2021/08/21 11:04:58;;;;;;;;;6.67;6.33;;;;;29.37;40.23;101191.09;6307221;22;45293;-77
2021/08/21 11:07:29;;;;;;;;;6.00;6.00;;;;;29.45;39.27;101192.25;6309061;22;45201;-77
2021/08/21 11:10:15;;;;;;;;;5.67;5.67;;;;;29.48;39.79;101196.56;6307211;22;46078;-77
2021/08/21 11:12:43;;;;;;;;;5.33;5.33;;;;;29.46;39.98;101185.84;6309216;22;45247;-77
2021/08/21 11:15:14;;;;;;;;;5.67;5.00;;;;;29.40;39.69;101189.03;6309286;22;45172;-77
2021/08/21 11:17:40;;;;;;;;;6.00;6.00;;;;;29.35;39.62;101184.91;6308681;22;45303;-77
2021/08/21 11:20:35;;;;;;;;;6.00;6.00;;;;;29.37;40.10;101186.53;6307176;22;45820;-77
2021/08/21 11:23:07;;;;;;;;;7.67;7.33;;;;;29.50;39.91;101193.75;6278139;22;45721;-76